createdAt,value
2022-10-05T00:01:46.082Z,101459.59
2022-10-05T00:04:15.475Z,101453.66
2022-10-05T00:06:50.570Z,101450.06
2022-10-05T00:09:20.858Z,101450.06
2022-10-05T00:11:49.052Z,101443.34
2022-10-05T00:14:25.740Z,101447.69
2022-10-05T00:16:52.269Z,101441.75
2022-10-05T00:19:25.906Z,101440.19
2022-10-05T00:21:52.538Z,101439.41
2022-10-05T00:24:20.344Z,101437.00
2022-10-05T00:26:47.111Z,101431.44
2022-10-05T00:29:23.792Z,101426.28
2022-10-05T00:31:50.595Z,101427.09
2022-10-05T00:34:17.834Z,101430.28
2022-10-05T00:36:45.611Z,101431.06
2022-10-05T00:39:12.695Z,101427.88
2022-10-05T00:42:10.194Z,101433.44
2022-10-05T00:44:44.491Z,101439.78
2022-10-05T00:47:22.738Z,101436.63
2022-10-05T00:49:49.191Z,101441.38
2022-10-05T00:52:31.264Z,101446.16
2022-10-05T00:55:17.798Z,101447.34
2022-10-05T00:58:06.696Z,101424.72
2022-10-05T01:00:43.858Z,101432.72
2022-10-05T01:03:23.680Z,101431.13
2022-10-05T01:06:03.310Z,101420.00
2022-10-05T01:08:51.062Z,101425.56
2022-10-05T01:11:27.765Z,101424.38
2022-10-05T01:14:25.549Z,101416.44
2022-10-05T01:16:54.532Z,101406.50
2022-10-05T01:19:26.932Z,101401.75
2022-10-05T01:22:28.100Z,101409.66
2022-10-05T01:25:06.728Z,101402.94
2022-10-05T01:27:55.080Z,101408.91
2022-10-05T01:30:22.824Z,101404.50
2022-10-05T01:33:11.016Z,101400.16
2022-10-05T01:35:40.524Z,101400.94
2022-10-05T01:38:15.901Z,101396.16
2022-10-05T01:40:48.510Z,101400.94
2022-10-05T01:43:27.470Z,101394.97
2022-10-05T01:46:06.324Z,101397.75
2022-10-05T01:48:54.480Z,101400.13
2022-10-05T01:51:45.774Z,101377.91
2022-10-05T01:54:30.960Z,101371.53
2022-10-05T01:57:16.000Z,101372.34
2022-10-05T02:00:05.523Z,101367.97
2022-10-05T02:02:36.277Z,101361.63
2022-10-05T02:05:11.417Z,101375.91
2022-10-05T02:07:48.099Z,101372.34
2022-10-05T02:10:36.330Z,101369.94
2022-10-05T02:13:17.453Z,101371.94
2022-10-05T02:15:56.175Z,101369.94
2022-10-05T02:18:30.390Z,101376.66
2022-10-05T02:20:58.518Z,101369.09
2022-10-05T02:23:31.045Z,101370.69
2022-10-05T02:25:58.308Z,101367.50
2022-10-05T02:28:37.290Z,101369.09
2022-10-05T02:31:15.509Z,101373.88
2022-10-05T02:33:42.009Z,101366.31
2022-10-05T02:36:16.373Z,101365.91
2022-10-05T02:38:59.230Z,101363.16
2022-10-05T02:41:40.585Z,101358.78
2022-10-05T02:44:21.578Z,101348.47
2022-10-05T02:47:24.868Z,101353.25
2022-10-05T02:50:14.317Z,101338.53
2022-10-05T02:53:09.688Z,101344.13
2022-10-05T02:56:02.228Z,101342.94
2022-10-05T02:58:38.741Z,101338.59
2022-10-05T03:01:27.623Z,101331.84
2022-10-05T03:04:09.117Z,101339.78
2022-10-05T03:06:48.042Z,101343.38
2022-10-05T03:09:17.605Z,101335.84
2022-10-05T03:11:51.323Z,101331.44
2022-10-05T03:14:31.238Z,101321.53
2022-10-05T03:17:13.496Z,101319.53
2022-10-05T03:19:46.100Z,101316.38
2022-10-05T03:22:42.458Z,101310.81
2022-10-05T03:25:20.879Z,101315.22
2022-10-05T03:28:08.370Z,101310.84
2022-10-05T03:30:49.646Z,101309.28
2022-10-05T03:33:25.949Z,101302.53
2022-10-05T03:36:10.445Z,101302.53
2022-10-05T03:39:01.214Z,101296.97
2022-10-05T03:41:37.513Z,101284.25
2022-10-05T03:44:06.923Z,101292.22
2022-10-05T03:47:07.373Z,101290.63
2022-10-05T03:49:49.103Z,101282.28
2022-10-05T03:52:36.346Z,101285.03
2022-10-05T03:55:16.829Z,101284.22
2022-10-05T03:57:44.139Z,101277.84
2022-10-05T04:00:32.046Z,101280.56
2022-10-05T04:03:23.461Z,101276.19
2022-10-05T04:05:55.101Z,101272.97
2022-10-05T04:08:44.129Z,101275.72
2022-10-05T04:11:26.330Z,101273.69
2022-10-05T04:14:03.483Z,101273.66
2022-10-05T04:16:39.127Z,101276.81
2022-10-05T04:19:21.502Z,101274.00
2022-10-05T04:22:14.225Z,101274.38
2022-10-05T04:24:48.569Z,101278.31
2022-10-05T04:27:23.459Z,101275.91
2022-10-05T04:30:25.545Z,101272.66
2022-10-05T04:32:59.488Z,101277.81
2022-10-05T04:35:53.417Z,101272.19
2022-10-05T04:38:36.384Z,101273.34
2022-10-05T04:41:30.267Z,101276.13
2022-10-05T04:44:33.854Z,101275.72
2022-10-05T04:47:06.297Z,101274.06
2022-10-05T04:50:03.810Z,101269.66
2022-10-05T04:53:15.606Z,101280.34
2022-10-05T04:55:58.050Z,101285.03
2022-10-05T04:58:50.395Z,101283.50
2022-10-05T05:01:34.737Z,101278.25
2022-10-05T05:04:19.993Z,101280.28
2022-10-05T05:07:21.744Z,101278.63
2022-10-05T05:10:12.267Z,101286.22
2022-10-05T05:12:51.135Z,101285.75
2022-10-05T05:15:42.357Z,101287.81
2022-10-05T05:18:45.826Z,101282.53
2022-10-05T05:21:24.783Z,101281.38
2022-10-05T05:24:29.366Z,101285.31
2022-10-05T05:27:10.729Z,101284.03
2022-10-05T05:30:14.824Z,101275.81
2022-10-05T05:32:59.984Z,101277.69
2022-10-05T05:35:51.403Z,101275.69
2022-10-05T05:38:39.737Z,101270.97
2022-10-05T05:41:37.078Z,101272.03
2022-10-05T05:44:03.416Z,101273.75
2022-10-05T05:47:03.519Z,101271.25
2022-10-05T05:49:52.517Z,101280.00
2022-10-05T05:52:39.291Z,101277.56
2022-10-05T05:55:29.045Z,101273.16
2022-10-05T05:58:17.511Z,101275.53
2022-10-05T06:01:01.129Z,101271.09
2022-10-05T06:03:41.055Z,101262.28
2022-10-05T06:06:15.580Z,101276.56
2022-10-05T06:08:47.571Z,101278.22
2022-10-05T06:11:16.687Z,101270.56
2022-10-05T06:13:44.089Z,101280.09
2022-10-05T06:16:13.541Z,101284.38
2022-10-05T06:18:43.676Z,101281.19
2022-10-05T06:21:26.119Z,101285.94
2022-10-05T06:24:02.259Z,101286.66
2022-10-05T06:27:06.372Z,101289.06
2022-10-05T06:30:06.505Z,101277.81
2022-10-05T06:32:51.114Z,101291.34
2022-10-05T06:35:29.675Z,101284.19
2022-10-05T06:38:08.358Z,101285.59
2022-10-05T06:40:37.760Z,101282.41
2022-10-05T06:43:27.802Z,101287.53
2022-10-05T06:46:09.074Z,101295.06
2022-10-05T06:48:54.079Z,101294.56
2022-10-05T06:51:23.910Z,101293.34
2022-10-05T06:54:14.718Z,101285.28
2022-10-05T06:56:51.233Z,101283.13
2022-10-05T06:59:27.094Z,101287.03
2022-10-05T07:02:21.304Z,101296.63
2022-10-05T07:04:52.412Z,101300.06
2022-10-05T07:07:30.688Z,101286.94
2022-10-05T07:10:35.625Z,101283.63
2022-10-05T07:13:20.424Z,101287.69
2022-10-05T07:16:12.006Z,101277.28
2022-10-05T07:18:44.206Z,101284.59
2022-10-05T07:21:35.706Z,101285.47
2022-10-05T07:24:40.525Z,101295.41
2022-10-05T07:27:09.808Z,101292.16
2022-10-05T07:29:49.026Z,101290.16
2022-10-05T07:32:28.710Z,101288.09
2022-10-05T07:35:09.845Z,101285.66
2022-10-05T07:37:55.217Z,101297.31
2022-10-05T07:40:32.868Z,101296.28
2022-10-05T07:43:03.399Z,101297.50
2022-10-05T07:45:46.666Z,101299.19
2022-10-05T07:48:24.316Z,101300.47
2022-10-05T07:51:06.498Z,101295.97
2022-10-05T07:53:37.704Z,101299.94
2022-10-05T07:56:21.007Z,101306.13
2022-10-05T07:58:57.213Z,101298.34
2022-10-05T08:01:29.550Z,101296.78
2022-10-05T08:04:02.489Z,101309.34
2022-10-05T08:06:35.763Z,101296.91
2022-10-05T08:09:20.252Z,101304.00
2022-10-05T08:11:55.352Z,101310.50
2022-10-05T08:14:37.566Z,101301.81
2022-10-05T08:17:15.610Z,101304.91
2022-10-05T08:19:51.387Z,101303.28
2022-10-05T08:22:25.246Z,101307.09
2022-10-05T08:24:58.271Z,101300.78
2022-10-05T08:27:39.804Z,101293.13
2022-10-05T08:30:10.465Z,101296.41
2022-10-05T08:33:02.590Z,101309.31
2022-10-05T08:35:39.412Z,101300.38
2022-10-05T08:38:18.596Z,101295.44
2022-10-05T08:41:32.751Z,101306.31
2022-10-05T08:44:11.059Z,101296.22
2022-10-05T08:47:15.104Z,101293.38
2022-10-05T08:50:13.672Z,101300.59
2022-10-05T08:52:52.170Z,101303.06
2022-10-05T08:55:46.138Z,101296.09
2022-10-05T08:58:27.610Z,101291.38
2022-10-05T09:01:21.230Z,101288.91
2022-10-05T09:04:00.767Z,101293.59
2022-10-05T09:06:51.919Z,101287.44
2022-10-05T09:10:01.418Z,101283.72
2022-10-05T09:12:47.563Z,101286.84
2022-10-05T09:15:37.246Z,101291.34
2022-10-05T09:18:24.102Z,101271.44
2022-10-05T09:20:53.861Z,101287.63
2022-10-05T09:23:35.508Z,101270.28
2022-10-05T09:26:26.699Z,101288.69
2022-10-05T09:28:54.594Z,101281.47
2022-10-05T09:31:40.203Z,101261.63
2022-10-05T09:34:21.117Z,101273.25
2022-10-05T09:37:30.663Z,101269.97
2022-10-05T09:40:35.330Z,101266.84
2022-10-05T09:43:10.118Z,101272.44
2022-10-05T09:45:56.963Z,101267.53
2022-10-05T09:48:53.818Z,101263.34
2022-10-05T09:51:23.240Z,101260.25
2022-10-05T09:53:58.619Z,101273.19
2022-10-05T09:56:43.594Z,101268.03
2022-10-05T09:59:43.667Z,101247.38
2022-10-05T10:02:23.206Z,101258.59
2022-10-05T10:05:22.771Z,101250.97
2022-10-05T10:08:09.549Z,101242.78
2022-10-05T10:10:52.739Z,101243.66
2022-10-05T10:13:21.914Z,101261.41
2022-10-05T10:16:08.618Z,101239.28
2022-10-05T10:18:49.598Z,101253.00
2022-10-05T10:21:31.066Z,101246.78
2022-10-05T10:24:16.201Z,101251.78
2022-10-05T10:26:56.051Z,101245.84
2022-10-05T10:29:45.890Z,101238.63
2022-10-05T10:32:33.987Z,101245.66
2022-10-05T10:35:21.562Z,101244.50
2022-10-05T10:38:12.977Z,101240.13
2022-10-05T10:41:14.871Z,101241.78
2022-10-05T10:44:18.950Z,101242.66
2022-10-05T10:47:07.674Z,101245.69
2022-10-05T10:50:04.948Z,101240.44
2022-10-05T10:52:57.615Z,101246.00
2022-10-05T10:55:33.719Z,101244.22
2022-10-05T10:58:24.194Z,101240.19
2022-10-05T11:01:16.246Z,101231.06
2022-10-05T11:04:13.658Z,101230.91
2022-10-05T11:07:09.546Z,101229.03
2022-10-05T11:10:13.919Z,101221.13
2022-10-05T11:13:01.768Z,101220.38
2022-10-05T11:15:34.263Z,101235.97
2022-10-05T11:18:25.146Z,101204.56
2022-10-05T11:21:13.048Z,101207.56
2022-10-05T11:24:04.579Z,101198.34
2022-10-05T11:27:04.262Z,101188.50
2022-10-05T11:30:04.793Z,101191.22
2022-10-05T11:32:31.220Z,101216.81
2022-10-05T11:35:28.823Z,101162.53
2022-10-05T11:38:28.345Z,101163.38
2022-10-05T11:40:57.767Z,101158.47
2022-10-05T11:43:24.086Z,101163.34
2022-10-05T11:45:50.439Z,101167.00
2022-10-05T11:48:25.622Z,101168.41
2022-10-05T11:51:10.539Z,101143.53
2022-10-05T11:53:45.687Z,101145.50
2022-10-05T11:56:27.275Z,101132.75
2022-10-05T11:59:01.659Z,101126.06
2022-10-05T12:01:57.418Z,101116.50
2022-10-05T12:04:29.608Z,101119.44
2022-10-05T12:06:56.031Z,101127.25
2022-10-05T12:09:32.264Z,101106.59
2022-10-05T12:12:01.381Z,101103.44
2022-10-05T12:14:48.106Z,101113.50
2022-10-05T12:17:30.896Z,101111.66
2022-10-05T12:20:02.147Z,101091.09
2022-10-05T12:22:39.996Z,101102.56
2022-10-05T12:25:15.673Z,101096.91
2022-10-05T12:27:46.286Z,101084.88
2022-10-05T12:30:18.359Z,101086.22
2022-10-05T12:33:11.293Z,101074.66
2022-10-05T12:35:49.002Z,101069.88
2022-10-05T12:38:32.768Z,101072.00
2022-10-05T12:41:07.183Z,101060.31
2022-10-05T12:43:45.316Z,101061.22
2022-10-05T12:46:56.428Z,101049.09
2022-10-05T12:49:56.712Z,101056.16
2022-10-05T12:52:45.331Z,101050.44
2022-10-05T12:55:31.399Z,101056.00
2022-10-05T12:58:20.869Z,101039.22
2022-10-05T13:00:57.721Z,101019.41
2022-10-05T13:03:49.173Z,101030.69
2022-10-05T13:06:21.110Z,101033.09
2022-10-05T13:08:51.828Z,101020.69
2022-10-05T13:11:32.964Z,101031.91
2022-10-05T13:14:12.655Z,101020.44
2022-10-05T13:17:01.168Z,101024.59
2022-10-05T13:19:39.235Z,101022.34
2022-10-05T13:22:23.931Z,101019.25
2022-10-05T13:24:59.416Z,101013.47
2022-10-05T13:27:36.845Z,100994.63
2022-10-05T13:30:12.342Z,100987.16
2022-10-05T13:32:46.302Z,100993.59
2022-10-05T13:35:31.471Z,100981.28
2022-10-05T13:38:23.845Z,100973.41
2022-10-05T13:40:59.117Z,100969.19
2022-10-05T13:43:39.108Z,100971.03
2022-10-05T13:46:17.415Z,100973.69
2022-10-05T13:49:04.530Z,100967.13
2022-10-05T13:51:55.153Z,100963.50
2022-10-05T13:54:32.095Z,100962.72
2022-10-05T13:57:24.174Z,100967.94
2022-10-05T13:59:57.906Z,100962.31
2022-10-05T14:02:30.533Z,100977.00
2022-10-05T14:05:02.095Z,100963.44
2022-10-05T14:07:31.672Z,100958.56
2022-10-05T14:09:59.552Z,100959.78
2022-10-05T14:12:27.388Z,100963.22
2022-10-05T14:14:56.978Z,100964.81
2022-10-05T14:17:29.162Z,100966.06
2022-10-05T14:20:01.497Z,100959.31
2022-10-05T14:22:29.192Z,100949.97
2022-10-05T14:25:01.929Z,100945.34
2022-10-05T14:27:31.013Z,100949.63
2022-10-05T14:30:00.405Z,100944.66
2022-10-05T14:32:32.470Z,100952.81
2022-10-05T14:35:15.377Z,100951.63
2022-10-05T14:37:55.989Z,100947.28
2022-10-05T14:40:22.534Z,100933.75
2022-10-05T14:42:49.860Z,100934.25
2022-10-05T14:45:19.989Z,100925.31
2022-10-05T14:48:01.759Z,100941.53
2022-10-05T14:50:30.830Z,100925.28
2022-10-05T14:53:04.383Z,100937.06
2022-10-05T14:55:56.243Z,100921.66
2022-10-05T14:58:45.444Z,100938.94
2022-10-05T15:01:31.461Z,100950.44
2022-10-05T15:04:10.132Z,100935.88
2022-10-05T15:06:54.679Z,100945.72
2022-10-05T15:09:37.518Z,100940.28
2022-10-05T15:12:04.610Z,100948.84
2022-10-05T15:14:43.460Z,100945.72
2022-10-05T15:17:30.920Z,100937.34
2022-10-05T15:20:24.723Z,100953.34
2022-10-05T15:23:23.654Z,100960.44
2022-10-05T15:26:22.775Z,100953.22
2022-10-05T15:29:04.326Z,100961.09
2022-10-05T15:31:40.973Z,100949.84
2022-10-05T15:34:32.718Z,100964.78
2022-10-05T15:37:15.988Z,100967.63
2022-10-05T15:39:53.475Z,100964.69
2022-10-05T15:42:28.025Z,100968.31
2022-10-05T15:45:10.705Z,100959.75
2022-10-05T15:47:59.903Z,100955.97
2022-10-05T15:50:45.622Z,100972.47
2022-10-05T15:53:42.798Z,100981.22
2022-10-05T15:56:38.331Z,100982.22
2022-10-05T15:59:37.443Z,100992.28
2022-10-05T16:02:14.433Z,101002.28
2022-10-05T16:04:51.618Z,100996.47
2022-10-05T16:07:43.820Z,101004.63
2022-10-05T16:10:16.070Z,101009.00
2022-10-05T16:13:00.637Z,101003.53
2022-10-05T16:15:48.662Z,100992.91
2022-10-05T16:18:33.052Z,101014.19
2022-10-05T16:21:06.012Z,101010.44
2022-10-05T16:24:19.763Z,101019.69
2022-10-05T16:26:56.965Z,101020.75
2022-10-05T16:29:48.308Z,101028.59
2022-10-05T16:32:30.136Z,101028.44
2022-10-05T16:35:08.736Z,101034.69
2022-10-05T16:37:59.274Z,101036.13
2022-10-05T16:40:43.914Z,101055.81
2022-10-05T16:43:26.444Z,101052.56
2022-10-05T16:46:09.810Z,101065.66
2022-10-05T16:48:53.979Z,101063.31
2022-10-05T16:51:54.416Z,101069.75
2022-10-05T16:54:31.511Z,101068.97
2022-10-05T16:57:25.453Z,101082.53
2022-10-05T17:00:03.954Z,101094.28
2022-10-05T17:03:01.657Z,101121.00
2022-10-05T17:05:38.988Z,101118.09
2022-10-05T17:08:30.321Z,101140.31
2022-10-05T17:11:28.510Z,101132.78
2022-10-05T17:14:06.703Z,101126.75
2022-10-05T17:17:15.759Z,101129.66
2022-10-05T17:19:48.160Z,101150.97
2022-10-05T17:22:30.414Z,101157.94
2022-10-05T17:24:59.531Z,101155.56
2022-10-05T17:27:32.811Z,101161.69
2022-10-05T17:30:27.118Z,101160.78
2022-10-05T17:33:14.149Z,101177.09
2022-10-05T17:35:50.789Z,101170.72
2022-10-05T17:38:41.618Z,101184.63
2022-10-05T17:41:17.237Z,101197.81
2022-10-05T17:44:19.383Z,101196.25
2022-10-05T17:46:48.861Z,101210.66
2022-10-05T17:49:17.950Z,101237.28
2022-10-05T17:52:06.220Z,101204.03
2022-10-05T17:55:15.176Z,101219.75
2022-10-05T17:57:41.950Z,101224.13
2022-10-05T18:00:47.428Z,101224.72
2022-10-05T18:03:44.328Z,101235.94
2022-10-05T18:06:25.866Z,101236.84
2022-10-05T18:09:16.861Z,101245.47
2022-10-05T18:11:45.766Z,101247.75
2022-10-05T18:14:27.367Z,101239.88
2022-10-05T18:17:48.055Z,101238.44
2022-10-05T18:20:26.551Z,101234.03
2022-10-05T18:23:23.765Z,101243.34
2022-10-05T18:26:04.813Z,101235.16
2022-10-05T18:29:13.652Z,101238.16
2022-10-05T18:31:49.984Z,101230.19
2022-10-05T18:34:52.406Z,101247.88
2022-10-05T18:37:21.576Z,101247.75
2022-10-05T18:40:08.538Z,101250.81
2022-10-05T18:42:43.787Z,101241.47
2022-10-05T18:45:37.748Z,101246.16
2022-10-05T18:48:30.453Z,101242.81
2022-10-05T18:51:15.646Z,101251.44
2022-10-05T18:53:51.831Z,101249.09
2022-10-05T18:56:36.182Z,101256.63
2022-10-05T18:59:19.286Z,101255.69
2022-10-05T19:01:56.402Z,101255.38
2022-10-05T19:04:44.894Z,101254.47
2022-10-05T19:08:02.840Z,101254.69
2022-10-05T19:10:45.650Z,101251.91
2022-10-05T19:13:27.401Z,101257.59
2022-10-05T19:16:18.816Z,101263.22
2022-10-05T19:19:04.417Z,101261.09
2022-10-05T19:21:55.723Z,101264.25
2022-10-05T19:25:10.446Z,101262.47
2022-10-05T19:28:14.197Z,101268.53
2022-10-05T19:30:59.955Z,101277.63
2022-10-05T19:33:57.909Z,101293.00
2022-10-05T19:36:35.446Z,101278.06
2022-10-05T19:39:12.727Z,101271.56
2022-10-05T19:41:46.343Z,101270.69
2022-10-05T19:44:12.762Z,101270.97
2022-10-05T19:47:00.728Z,101273.22
2022-10-05T19:49:42.982Z,101277.31
2022-10-05T19:52:15.332Z,101277.31
2022-10-05T19:54:42.459Z,101305.28
2022-10-05T19:57:17.735Z,101275.63
2022-10-05T19:59:48.305Z,101279.84
2022-10-05T20:02:16.883Z,101278.16
2022-10-05T20:04:45.928Z,101272.38
2022-10-05T20:07:21.686Z,101280.00
2022-10-05T20:09:59.258Z,101277.50
2022-10-05T20:12:50.630Z,101283.91
2022-10-05T20:15:42.092Z,101273.81
2022-10-05T20:18:55.231Z,101279.66
2022-10-05T20:21:39.876Z,101291.00
2022-10-05T20:24:27.380Z,101312.81
2022-10-05T20:27:30.926Z,101281.09
2022-10-05T20:29:58.043Z,101303.28
2022-10-05T20:32:27.475Z,101290.34
2022-10-05T20:34:57.024Z,101308.75
2022-10-05T20:37:24.207Z,101315.06
2022-10-05T20:39:51.397Z,101303.03
2022-10-05T20:42:19.292Z,101313.16
2022-10-05T20:44:45.941Z,101324.03
2022-10-05T20:47:13.754Z,101319.34
2022-10-05T20:49:41.281Z,101336.00
2022-10-05T20:52:13.207Z,101316.66
2022-10-05T20:54:39.740Z,101333.63
2022-10-05T20:57:07.092Z,101329.78
2022-10-05T20:59:34.471Z,101333.06
2022-10-05T21:02:01.546Z,101334.88
2022-10-05T21:04:40.316Z,101342.16
2022-10-05T21:07:07.547Z,101341.38
2022-10-05T21:09:33.945Z,101334.06
2022-10-05T21:12:00.399Z,101340.28
2022-10-05T21:14:30.474Z,101346.59
2022-10-05T21:16:56.902Z,101345.75
2022-10-05T21:19:23.333Z,101355.88
2022-10-05T21:21:49.826Z,101338.91
2022-10-05T21:24:17.270Z,101346.38
2022-10-05T21:26:44.743Z,101350.44
2022-10-05T21:29:13.046Z,101356.09
2022-10-05T21:31:39.847Z,101344.38
2022-10-05T21:34:06.496Z,101344.47
2022-10-05T21:36:33.445Z,101355.84
2022-10-05T21:39:00.534Z,101362.56
2022-10-05T21:41:27.581Z,101362.38
2022-10-05T21:43:54.091Z,101374.16
2022-10-05T21:46:25.299Z,101378.09
2022-10-05T21:48:52.598Z,101390.94
2022-10-05T21:51:19.882Z,101400.63
2022-10-05T21:53:51.789Z,101398.41
2022-10-05T21:56:20.800Z,101407.53
2022-10-05T21:58:48.158Z,101414.91
2022-10-05T22:01:17.792Z,101436.91
2022-10-05T22:03:46.723Z,101422.44
2022-10-05T22:06:13.207Z,101458.22
2022-10-05T22:08:39.971Z,101437.00
2022-10-05T22:11:15.463Z,101430.25
2022-10-05T22:13:45.430Z,101428.31
2022-10-05T22:16:13.116Z,101444.06
2022-10-05T22:18:40.051Z,101455.28
2022-10-05T22:21:08.946Z,101454.25
2022-10-05T22:23:35.932Z,101466.84
2022-10-05T22:26:03.862Z,101466.69
2022-10-05T22:28:32.661Z,101459.47
2022-10-05T22:31:02.941Z,101470.84
2022-10-05T22:33:29.618Z,101481.72
2022-10-05T22:35:58.825Z,101471.88
2022-10-05T22:38:25.675Z,101474.06
2022-10-05T22:40:52.358Z,101484.19
2022-10-05T22:43:18.794Z,101494.72
2022-10-05T22:45:45.256Z,101511.25
2022-10-05T22:48:11.905Z,101515.22
2022-10-05T22:50:38.598Z,101531.25
2022-10-05T22:53:05.087Z,101531.47
2022-10-05T22:55:31.583Z,101535.72
2022-10-05T22:57:58.029Z,101539.66
2022-10-05T23:00:35.112Z,101545.97
2022-10-05T23:03:11.204Z,101577.66
2022-10-05T23:05:37.841Z,101597.31
2022-10-05T23:08:04.295Z,101610.06
2022-10-05T23:10:32.111Z,101594.84
2022-10-05T23:13:01.009Z,101597.63
2022-10-05T23:15:27.814Z,101605.81
2022-10-05T23:17:56.071Z,101619.09
2022-10-05T23:20:24.657Z,101628.84
2022-10-05T23:22:51.118Z,101633.84
2022-10-05T23:25:17.808Z,101646.88
2022-10-05T23:27:44.332Z,101656.03
2022-10-05T23:30:12.782Z,101657.28
2022-10-05T23:32:41.266Z,101662.16
2022-10-05T23:35:09.753Z,101665.84
2022-10-05T23:37:40.424Z,101675.41
2022-10-05T23:40:11.698Z,101665.03
2022-10-05T23:42:41.779Z,101665.53
2022-10-05T23:45:10.386Z,101661.63
2022-10-05T23:47:37.135Z,101676.78
2022-10-05T23:50:06.910Z,101679.28
2022-10-05T23:52:34.488Z,101680.84
2022-10-05T23:55:01.241Z,101680.84
2022-10-05T23:57:27.715Z,101685.72
2022-10-05T23:59:56.138Z,101698.50
